createdAt,value
2022-10-18T00:00:04.652Z,0.00
2022-10-18T00:01:04.659Z,0.00
2022-10-18T00:02:04.737Z,0.00
2022-10-18T00:03:04.613Z,0.00
2022-10-18T00:04:04.689Z,0.00
2022-10-18T00:05:04.602Z,0.00
2022-10-18T00:06:04.609Z,0.00
2022-10-18T00:07:04.820Z,0.00
2022-10-18T00:08:04.554Z,0.00
2022-10-18T00:09:04.539Z,0.00
2022-10-18T00:10:04.527Z,0.00
2022-10-18T00:11:04.579Z,0.00
2022-10-18T00:12:04.504Z,0.00
2022-10-18T00:13:04.538Z,0.00
2022-10-18T00:14:04.466Z,0.00
2022-10-18T00:15:04.457Z,0.00
2022-10-18T00:16:04.426Z,0.00
2022-10-18T00:17:04.467Z,0.00
2022-10-18T00:18:04.428Z,0.00
2022-10-18T00:19:04.399Z,0.00
2022-10-18T00:20:05.330Z,0.00
2022-10-18T00:21:04.410Z,0.00
2022-10-18T00:22:04.352Z,0.00
2022-10-18T00:23:04.338Z,0.00
2022-10-18T00:24:04.361Z,0.00
2022-10-18T00:25:04.316Z,0.00
2022-10-18T00:26:04.468Z,0.00
2022-10-18T00:27:04.280Z,0.00
2022-10-18T00:28:04.272Z,0.00
2022-10-18T00:29:04.366Z,0.00
2022-10-18T00:30:04.255Z,0.00
2022-10-18T00:31:04.211Z,0.00
2022-10-18T00:32:04.204Z,0.00
2022-10-18T00:33:04.279Z,0.00
2022-10-18T00:34:04.182Z,0.00
2022-10-18T00:35:04.222Z,0.00
2022-10-18T00:36:04.171Z,0.00
2022-10-18T00:37:04.201Z,0.00
2022-10-18T00:38:04.174Z,0.00
2022-10-18T00:39:04.096Z,0.00
2022-10-18T00:40:04.100Z,0.00
2022-10-18T00:41:04.093Z,0.00
2022-10-18T00:42:04.104Z,0.00
2022-10-18T00:43:04.045Z,0.00
2022-10-18T00:44:04.129Z,0.00
2022-10-18T00:45:04.004Z,0.00
2022-10-18T00:46:04.434Z,0.00
2022-10-18T00:47:03.987Z,0.00
2022-10-18T00:48:03.966Z,0.00
2022-10-18T00:49:03.970Z,0.00
2022-10-18T00:50:03.977Z,0.00
2022-10-18T00:51:03.951Z,0.00
2022-10-18T00:52:03.922Z,0.00
2022-10-18T00:53:03.902Z,0.00
2022-10-18T00:54:03.891Z,0.00
2022-10-18T00:55:03.917Z,0.00
2022-10-18T00:56:03.858Z,0.00
2022-10-18T00:57:03.890Z,0.00
2022-10-18T00:58:03.872Z,0.00
2022-10-18T00:59:03.820Z,0.00
2022-10-18T01:00:03.824Z,0.00
2022-10-18T01:01:03.808Z,0.00
2022-10-18T01:02:03.836Z,0.00
2022-10-18T01:03:03.780Z,0.00
2022-10-18T01:04:03.731Z,0.00
2022-10-18T01:05:03.721Z,0.00
2022-10-18T01:06:03.732Z,0.00
2022-10-18T01:07:03.784Z,0.00
2022-10-18T01:08:05.163Z,0.00
2022-10-18T01:09:03.701Z,0.00
2022-10-18T01:10:03.672Z,0.00
2022-10-18T01:11:03.712Z,0.00
2022-10-18T01:12:03.713Z,0.00
2022-10-18T01:13:03.698Z,0.00
2022-10-18T01:14:03.617Z,0.00
2022-10-18T01:15:03.632Z,0.00
2022-10-18T01:16:04.422Z,0.00
2022-10-18T01:17:04.381Z,0.00
2022-10-18T01:18:03.605Z,0.00
2022-10-18T01:19:03.557Z,0.00
2022-10-18T01:20:03.545Z,0.00
2022-10-18T01:21:03.507Z,0.00
2022-10-18T01:22:03.567Z,0.00
2022-10-18T01:23:03.497Z,0.00
2022-10-18T01:24:03.850Z,0.00
2022-10-18T01:26:04.369Z,0.00
2022-10-18T01:27:03.478Z,0.00
2022-10-18T01:28:03.429Z,0.00
2022-10-18T01:29:03.439Z,0.00
2022-10-18T01:30:03.389Z,0.00
2022-10-18T01:31:04.373Z,0.00
2022-10-18T01:32:03.349Z,0.00
2022-10-18T01:33:03.453Z,0.00
2022-10-18T01:34:03.338Z,0.00
2022-10-18T01:35:03.351Z,0.00
2022-10-18T01:36:04.211Z,0.00
2022-10-18T01:37:03.324Z,0.00
2022-10-18T01:38:03.292Z,0.00
2022-10-18T01:39:03.261Z,0.00
2022-10-18T01:40:04.051Z,0.00
2022-10-18T01:41:03.272Z,0.00
2022-10-18T01:42:03.257Z,0.00
2022-10-18T01:43:03.322Z,0.00
2022-10-18T01:44:03.242Z,0.00
2022-10-18T01:45:03.195Z,0.00
2022-10-18T01:46:03.195Z,0.00
2022-10-18T01:47:03.174Z,0.00
2022-10-18T01:48:03.144Z,0.00
2022-10-18T01:49:03.116Z,0.00
2022-10-18T01:50:03.106Z,0.00
2022-10-18T01:51:03.126Z,0.00
2022-10-18T01:52:03.155Z,0.00
2022-10-18T01:53:03.107Z,0.00
2022-10-18T01:54:03.065Z,0.00
2022-10-18T01:55:03.067Z,0.00
2022-10-18T01:56:03.058Z,0.00
2022-10-18T01:57:03.002Z,0.00
2022-10-18T01:58:03.863Z,0.00
2022-10-18T01:59:02.981Z,0.00
2022-10-18T02:00:02.977Z,0.00
2022-10-18T02:01:03.019Z,0.00
2022-10-18T02:02:02.927Z,0.00
2022-10-18T02:03:03.697Z,0.00
2022-10-18T02:04:02.899Z,0.00
2022-10-18T02:05:03.731Z,0.00
2022-10-18T02:06:02.889Z,0.00
2022-10-18T02:07:03.807Z,0.00
2022-10-18T02:08:12.335Z,0.00
2022-10-18T02:09:03.840Z,0.00
2022-10-18T02:10:02.949Z,0.00
2022-10-18T02:11:03.662Z,0.00
2022-10-18T02:12:02.790Z,0.00
2022-10-18T02:13:02.781Z,0.00
2022-10-18T02:14:03.671Z,0.00
2022-10-18T02:15:02.793Z,0.00
2022-10-18T02:16:02.861Z,0.00
2022-10-18T02:17:02.771Z,0.00
2022-10-18T02:18:03.589Z,0.00
2022-10-18T02:19:03.670Z,0.00
2022-10-18T02:20:03.581Z,0.00
2022-10-18T02:21:03.471Z,0.00
2022-10-18T02:22:02.681Z,0.00
2022-10-18T02:23:02.772Z,0.00
2022-10-18T02:24:02.643Z,0.00
2022-10-18T02:25:02.633Z,0.00
2022-10-18T02:26:02.664Z,0.00
2022-10-18T02:27:03.186Z,0.00
2022-10-18T02:28:02.563Z,0.00
2022-10-18T02:29:02.614Z,0.00
2022-10-18T02:30:03.305Z,0.00
2022-10-18T02:32:18.830Z,0.00
2022-10-18T02:33:18.060Z,0.00
2022-10-18T02:34:18.979Z,0.00
2022-10-18T02:35:20.841Z,0.00
2022-10-18T02:36:18.581Z,0.00
2022-10-18T02:37:19.319Z,0.00
2022-10-18T02:38:19.730Z,0.00
2022-10-18T02:39:19.710Z,0.00
2022-10-18T02:40:18.877Z,0.00
2022-10-18T02:41:19.747Z,0.00
2022-10-18T02:42:18.520Z,0.00
2022-10-18T02:43:19.226Z,0.00
2022-10-18T02:44:41.903Z,0.00
2022-10-18T02:45:21.724Z,0.00
2022-10-18T02:46:18.439Z,0.00
2022-10-18T02:47:17.591Z,0.00
2022-10-18T02:48:17.541Z,0.00
2022-10-18T02:49:17.097Z,0.00
2022-10-18T02:50:17.095Z,0.00
2022-10-18T02:51:17.762Z,0.00
2022-10-18T02:52:17.075Z,0.00
2022-10-18T02:53:18.032Z,0.00
2022-10-18T02:54:17.653Z,0.00
2022-10-18T02:55:17.119Z,0.00
2022-10-18T02:56:17.012Z,0.00
2022-10-18T02:57:17.929Z,0.00
2022-10-18T02:58:17.001Z,0.00
2022-10-18T02:59:16.995Z,0.00
2022-10-18T03:00:16.946Z,0.00
2022-10-18T03:01:16.989Z,0.00
2022-10-18T03:02:16.915Z,0.00
2022-10-18T03:03:16.981Z,0.00
2022-10-18T03:04:17.404Z,0.00
2022-10-18T03:05:16.926Z,0.00
2022-10-18T03:06:16.876Z,0.00
2022-10-18T03:07:16.856Z,0.00
2022-10-18T03:08:16.870Z,0.00
2022-10-18T03:09:16.899Z,0.00
2022-10-18T03:10:16.861Z,0.00
2022-10-18T03:11:16.829Z,0.00
2022-10-18T03:12:16.845Z,0.00
2022-10-18T03:13:16.852Z,0.00
2022-10-18T03:14:16.791Z,0.00
2022-10-18T03:15:16.749Z,0.00
2022-10-18T03:16:16.750Z,0.00
2022-10-18T03:17:17.713Z,0.00
2022-10-18T03:18:16.704Z,0.00
2022-10-18T03:19:16.729Z,0.00
2022-10-18T03:20:16.673Z,0.00
2022-10-18T03:21:16.663Z,0.00
2022-10-18T03:22:16.771Z,0.00
2022-10-18T03:23:16.679Z,0.00
2022-10-18T03:24:16.640Z,0.00
2022-10-18T03:25:16.629Z,0.00
2022-10-18T03:26:16.663Z,0.00
2022-10-18T03:27:16.582Z,0.00
2022-10-18T03:28:16.557Z,0.00
2022-10-18T03:29:16.570Z,0.00
2022-10-18T03:30:16.536Z,0.00
2022-10-18T03:31:16.545Z,0.00
2022-10-18T03:32:16.545Z,0.00
2022-10-18T03:33:16.523Z,0.00
2022-10-18T03:34:16.475Z,0.00
2022-10-18T03:35:16.509Z,0.00
2022-10-18T03:36:16.518Z,0.00
2022-10-18T03:37:17.875Z,0.00
2022-10-18T03:38:16.445Z,0.00
2022-10-18T03:39:16.407Z,0.00
2022-10-18T03:40:17.355Z,0.00
2022-10-18T03:41:16.386Z,0.00
2022-10-18T03:42:16.377Z,0.00
2022-10-18T03:43:16.784Z,0.00
2022-10-18T03:44:16.359Z,0.00
2022-10-18T03:45:16.314Z,0.00
2022-10-18T03:46:16.375Z,0.00
2022-10-18T03:47:16.318Z,0.00
2022-10-18T03:48:16.296Z,0.00
2022-10-18T03:49:16.317Z,0.00
2022-10-18T03:50:16.247Z,0.00
2022-10-18T03:51:16.271Z,0.00
2022-10-18T03:52:16.261Z,0.00
2022-10-18T03:53:16.228Z,0.00
2022-10-18T03:54:16.211Z,0.00
2022-10-18T03:55:16.193Z,0.00
2022-10-18T03:56:16.203Z,0.00
2022-10-18T03:57:16.181Z,0.00
2022-10-18T03:58:16.134Z,0.00
2022-10-18T03:59:16.155Z,0.00
2022-10-18T04:00:16.179Z,0.00
2022-10-18T04:01:16.199Z,0.00
2022-10-18T04:02:16.091Z,0.00
2022-10-18T04:03:16.195Z,0.00
2022-10-18T04:04:16.084Z,0.00
2022-10-18T04:05:16.103Z,0.00
2022-10-18T04:06:16.496Z,0.00
2022-10-18T04:07:16.033Z,0.00
2022-10-18T04:08:16.044Z,0.00
2022-10-18T04:09:16.046Z,0.00
2022-10-18T04:10:15.967Z,0.00
2022-10-18T04:11:15.953Z,0.00
2022-10-18T04:12:15.964Z,0.00
2022-10-18T04:13:15.953Z,0.00
2022-10-18T04:14:15.976Z,0.00
2022-10-18T04:15:15.946Z,0.00
2022-10-18T04:16:15.943Z,0.00
2022-10-18T04:17:15.884Z,0.00
2022-10-18T04:18:15.857Z,0.00
2022-10-18T04:19:15.886Z,0.00
2022-10-18T04:20:15.836Z,0.00
2022-10-18T04:21:16.750Z,0.00
2022-10-18T04:22:15.809Z,0.00
2022-10-18T04:23:15.776Z,0.00
2022-10-18T04:24:15.789Z,0.00
2022-10-18T04:25:15.782Z,0.00
2022-10-18T04:26:15.929Z,0.00
2022-10-18T04:27:15.730Z,0.00
2022-10-18T04:28:15.721Z,0.00
2022-10-18T04:29:15.755Z,0.00
2022-10-18T04:30:15.717Z,0.00
2022-10-18T04:31:15.701Z,0.00
2022-10-18T04:32:15.669Z,0.00
2022-10-18T04:33:15.646Z,0.00
2022-10-18T04:34:15.670Z,0.00
2022-10-18T04:35:15.673Z,0.00
2022-10-18T04:36:15.658Z,0.00
2022-10-18T04:37:16.339Z,0.00
2022-10-18T04:38:15.590Z,0.00
2022-10-18T04:39:15.810Z,0.00
2022-10-18T04:40:15.588Z,0.00
2022-10-18T04:41:15.545Z,0.00
2022-10-18T04:42:15.540Z,0.00
2022-10-18T04:43:15.512Z,0.00
2022-10-18T04:44:15.502Z,0.00
2022-10-18T04:45:15.491Z,0.00
2022-10-18T04:46:15.502Z,0.00
2022-10-18T04:47:15.513Z,0.00
2022-10-18T04:48:15.442Z,0.00
2022-10-18T04:49:15.445Z,0.00
2022-10-18T04:50:15.408Z,0.00
2022-10-18T04:51:15.398Z,0.00
2022-10-18T04:52:15.452Z,0.00
2022-10-18T04:53:15.390Z,0.00
2022-10-18T04:54:15.373Z,0.00
2022-10-18T04:55:15.355Z,0.00
2022-10-18T04:56:15.336Z,0.00
2022-10-18T04:57:15.313Z,0.00
2022-10-18T04:58:15.375Z,0.00
2022-10-18T04:59:15.284Z,0.00
2022-10-18T05:00:15.289Z,0.00
2022-10-18T05:01:16.755Z,0.00
2022-10-18T05:02:15.292Z,0.00
2022-10-18T05:03:15.258Z,0.00
2022-10-18T05:04:15.319Z,0.00
2022-10-18T05:05:16.153Z,0.00
2022-10-18T05:06:15.214Z,0.00
2022-10-18T05:07:16.207Z,0.00
2022-10-18T05:08:15.167Z,0.00
2022-10-18T05:09:16.050Z,0.00
2022-10-18T05:10:15.170Z,0.00
2022-10-18T05:11:15.140Z,0.00
2022-10-18T05:12:15.108Z,0.00
2022-10-18T05:13:16.109Z,0.00
2022-10-18T05:14:16.016Z,0.00
2022-10-18T05:15:15.074Z,0.00
2022-10-18T05:16:15.379Z,0.00
2022-10-18T05:17:15.051Z,0.00
2022-10-18T05:18:15.509Z,0.00
2022-10-18T05:19:15.581Z,4.00
2022-10-18T05:21:14.990Z,4.00
2022-10-18T05:22:14.984Z,4.00
2022-10-18T05:23:15.080Z,4.00
2022-10-18T05:24:14.975Z,8.00
2022-10-18T05:25:14.921Z,8.00
2022-10-18T05:26:15.041Z,8.00
2022-10-18T05:27:14.988Z,8.00
2022-10-18T05:28:38.126Z,8.00
2022-10-18T05:29:16.075Z,12.00
2022-10-18T05:30:15.844Z,12.00
2022-10-18T05:31:15.693Z,16.00
2022-10-18T05:32:14.856Z,20.00
2022-10-18T05:33:14.825Z,24.00
2022-10-18T05:34:14.816Z,28.00
2022-10-18T05:35:14.795Z,36.00
2022-10-18T05:36:14.947Z,36.00
2022-10-18T05:37:14.767Z,44.00
2022-10-18T05:38:15.794Z,52.00
2022-10-18T05:39:14.747Z,60.00
2022-10-18T05:40:14.815Z,72.00
2022-10-18T05:41:14.724Z,80.00
2022-10-18T05:42:14.819Z,92.00
2022-10-18T05:43:14.689Z,108.00
2022-10-18T05:44:14.780Z,120.00
2022-10-18T05:45:14.680Z,140.00
2022-10-18T05:46:15.816Z,160.00
2022-10-18T05:47:14.615Z,172.00
2022-10-18T05:48:14.699Z,192.00
2022-10-18T05:49:14.629Z,204.00
2022-10-18T05:50:14.648Z,216.00
2022-10-18T05:51:14.639Z,232.00
2022-10-18T05:52:14.561Z,248.00
2022-10-18T05:53:35.113Z,268.00
2022-10-18T05:54:15.535Z,288.00
2022-10-18T05:55:15.483Z,308.00
2022-10-18T05:56:14.553Z,336.00
2022-10-18T05:57:14.814Z,372.00
2022-10-18T05:58:15.428Z,404.00
2022-10-18T05:59:14.480Z,440.00
2022-10-18T06:00:14.771Z,472.00
2022-10-18T06:01:14.749Z,504.00
2022-10-18T06:02:14.720Z,532.00
2022-10-18T06:03:15.412Z,568.00
2022-10-18T06:04:14.396Z,604.00
2022-10-18T06:05:14.457Z,636.00
2022-10-18T06:06:14.684Z,672.00
2022-10-18T06:07:14.735Z,704.00
2022-10-18T06:08:14.706Z,736.00
2022-10-18T06:09:14.775Z,768.00
2022-10-18T06:10:14.738Z,812.00
2022-10-18T06:11:14.698Z,860.00
2022-10-18T06:12:14.777Z,912.00
2022-10-18T06:13:14.757Z,964.00
2022-10-18T06:14:14.326Z,1020.00
2022-10-18T06:15:14.263Z,1080.00
2022-10-18T06:16:15.240Z,1132.00
2022-10-18T06:17:14.218Z,1176.00
2022-10-18T06:18:14.262Z,1204.00
2022-10-18T06:19:15.150Z,1216.00
2022-10-18T06:20:14.174Z,1216.00
2022-10-18T06:21:14.148Z,1224.00
2022-10-18T06:22:14.174Z,1232.00
2022-10-18T06:23:14.620Z,1264.00
2022-10-18T06:24:14.118Z,1308.00
2022-10-18T06:25:14.097Z,1368.00
2022-10-18T06:26:14.089Z,1432.00
2022-10-18T06:27:14.121Z,1496.00
2022-10-18T06:28:14.100Z,1548.00
2022-10-18T06:29:14.161Z,1580.00
2022-10-18T06:30:14.038Z,1596.00
2022-10-18T06:31:15.042Z,1616.00
2022-10-18T06:32:14.022Z,1632.00
2022-10-18T06:33:13.984Z,1652.00
2022-10-18T06:34:13.991Z,1692.00
2022-10-18T06:35:13.984Z,1744.00
2022-10-18T06:36:13.951Z,1820.00
2022-10-18T06:37:13.937Z,1904.00
2022-10-18T06:38:13.905Z,1980.00
2022-10-18T06:39:13.923Z,2048.00
2022-10-18T06:40:13.895Z,2100.00
2022-10-18T06:41:13.843Z,2136.00
2022-10-18T06:42:13.872Z,2172.00
2022-10-18T06:43:20.981Z,2228.00
2022-10-18T06:44:14.896Z,2292.00
2022-10-18T06:45:13.804Z,2372.00
2022-10-18T06:46:13.792Z,2452.00
2022-10-18T06:47:13.799Z,2536.00
2022-10-18T06:48:13.790Z,2624.00
2022-10-18T06:49:15.333Z,2684.00
2022-10-18T06:50:13.756Z,2736.00
2022-10-18T06:51:13.715Z,2736.00
2022-10-18T06:52:13.704Z,2740.00
2022-10-18T06:53:13.687Z,2788.00
2022-10-18T06:54:17.876Z,2852.00
2022-10-18T06:55:13.668Z,2956.00
2022-10-18T06:56:14.157Z,3100.00
2022-10-18T06:57:13.626Z,3220.00
2022-10-18T06:58:13.618Z,3324.00
2022-10-18T06:59:13.673Z,3396.00
2022-10-18T07:00:14.537Z,3408.00
2022-10-18T07:01:13.610Z,3412.00
2022-10-18T07:02:13.603Z,3460.00
2022-10-18T07:03:13.557Z,3504.00
2022-10-18T07:04:13.548Z,3568.00
2022-10-18T07:05:13.519Z,3648.00
2022-10-18T07:06:14.148Z,3792.00
2022-10-18T07:07:13.519Z,3988.00
2022-10-18T07:08:13.479Z,4288.00
2022-10-18T07:09:13.471Z,4356.00
2022-10-18T07:10:13.489Z,4292.00
2022-10-18T07:11:13.439Z,4160.00
2022-10-18T07:12:13.460Z,3996.00
2022-10-18T07:13:31.508Z,4004.00
2022-10-18T07:14:16.484Z,3992.00
2022-10-18T07:15:13.414Z,3796.00
2022-10-18T07:16:17.305Z,3692.00
2022-10-18T07:17:14.803Z,3628.00
2022-10-18T07:18:13.364Z,3644.00
2022-10-18T07:19:13.426Z,3736.00
2022-10-18T07:20:13.324Z,3904.00
2022-10-18T07:21:13.360Z,4080.00
2022-10-18T07:22:13.324Z,4196.00
2022-10-18T07:23:13.307Z,4264.00
2022-10-18T07:24:13.263Z,4280.00
2022-10-18T07:25:13.274Z,4504.00
2022-10-18T07:26:13.234Z,4616.00
2022-10-18T07:27:13.264Z,4732.00
2022-10-18T07:28:13.245Z,4924.00
2022-10-18T07:29:13.198Z,5088.00
2022-10-18T07:30:13.174Z,5056.00
2022-10-18T07:31:13.186Z,5060.00
2022-10-18T07:32:13.186Z,5156.00
2022-10-18T07:33:13.136Z,4964.00
2022-10-18T07:34:13.166Z,4852.00
2022-10-18T07:35:13.203Z,4464.00
2022-10-18T07:36:13.130Z,4568.00
2022-10-18T07:37:13.117Z,4648.00
2022-10-18T07:38:13.087Z,4736.00
2022-10-18T07:39:13.157Z,4512.00
2022-10-18T07:40:13.358Z,4476.00
2022-10-18T07:41:13.027Z,4544.00
2022-10-18T07:42:13.067Z,4600.00
2022-10-18T07:43:13.008Z,4668.00
2022-10-18T07:44:13.008Z,4680.00
2022-10-18T07:45:12.999Z,4996.00
2022-10-18T07:46:13.362Z,5080.00
2022-10-18T07:47:12.972Z,5364.00
2022-10-18T07:48:12.964Z,5556.00
2022-10-18T07:49:12.996Z,5636.00
2022-10-18T07:50:12.920Z,6048.00
2022-10-18T07:51:12.934Z,6392.00
2022-10-18T07:52:12.871Z,6904.00
2022-10-18T07:53:14.755Z,7172.00
2022-10-18T07:54:13.746Z,7352.00
2022-10-18T07:55:14.352Z,7524.00
2022-10-18T07:56:12.811Z,7840.00
2022-10-18T07:57:13.010Z,8280.00
2022-10-18T07:58:12.786Z,8768.00
2022-10-18T07:59:12.910Z,9260.00
2022-10-18T08:00:12.813Z,9692.00
2022-10-18T08:01:13.820Z,9956.00
2022-10-18T08:02:12.755Z,10164.00
2022-10-18T08:54:04.396Z,12916.00
2022-10-18T08:55:04.358Z,12896.00
2022-10-18T08:56:04.383Z,12876.00
2022-10-18T08:57:04.386Z,12856.00
2022-10-18T08:58:04.359Z,12868.00
2022-10-18T08:59:04.327Z,13020.00
2022-10-18T09:00:06.087Z,13068.00
2022-10-18T09:01:11.199Z,13072.00
2022-10-18T09:02:04.799Z,13032.00
2022-10-18T09:03:05.497Z,12928.00
2022-10-18T09:04:04.657Z,12576.00
2022-10-18T09:05:05.720Z,12548.00
2022-10-18T09:06:04.596Z,12372.00
2022-10-18T09:07:04.360Z,11760.00
2022-10-18T09:08:04.193Z,11332.00
2022-10-18T09:09:04.218Z,10924.00
2022-10-18T09:10:04.273Z,9940.00
2022-10-18T09:11:05.047Z,9508.00
2022-10-18T09:12:04.153Z,8684.00
2022-10-18T09:13:06.137Z,8176.00
2022-10-18T09:14:04.197Z,8224.00
2022-10-18T09:15:04.124Z,7720.00
2022-10-18T09:16:04.111Z,7228.00
2022-10-18T09:17:04.066Z,6576.00
2022-10-18T09:18:04.069Z,6176.00
2022-10-18T09:19:04.047Z,6512.00
2022-10-18T09:20:04.015Z,6544.00
2022-10-18T09:21:04.057Z,6016.00
2022-10-18T09:22:06.255Z,6000.00
2022-10-18T09:23:04.991Z,5860.00
2022-10-18T09:24:04.097Z,5748.00
2022-10-18T09:25:04.005Z,5520.00
2022-10-18T09:26:03.966Z,5284.00
2022-10-18T09:27:04.331Z,5268.00
2022-10-18T09:28:04.000Z,5112.00
2022-10-18T09:29:04.247Z,4948.00
2022-10-18T09:30:03.975Z,4820.00
2022-10-18T09:31:03.869Z,4704.00
2022-10-18T09:32:03.943Z,4632.00
2022-10-18T09:33:03.892Z,4952.00
2022-10-18T09:34:03.983Z,4968.00
2022-10-18T09:35:03.789Z,5016.00
2022-10-18T09:36:03.816Z,5484.00
2022-10-18T09:37:04.119Z,5480.00
2022-10-18T09:38:03.769Z,5512.00
2022-10-18T09:39:03.898Z,5524.00
2022-10-18T09:40:04.042Z,5444.00
2022-10-18T09:41:03.804Z,5228.00
2022-10-18T09:42:03.757Z,5260.00
2022-10-18T09:43:03.991Z,5548.00
2022-10-18T09:44:03.782Z,5840.00
2022-10-18T09:45:04.652Z,5972.00
2022-10-18T09:46:03.727Z,5976.00
2022-10-18T09:47:03.727Z,5888.00
2022-10-18T09:48:03.677Z,5880.00
2022-10-18T09:49:03.630Z,5968.00
2022-10-18T09:50:03.644Z,6128.00
2022-10-18T09:51:03.720Z,5940.00
2022-10-18T09:52:03.593Z,5980.00
2022-10-18T09:53:03.563Z,5984.00
2022-10-18T09:54:03.670Z,5960.00
2022-10-18T09:55:03.609Z,6320.00
2022-10-18T09:56:03.950Z,6300.00
2022-10-18T09:57:03.621Z,6008.00
2022-10-18T09:58:03.611Z,6620.00
2022-10-18T09:59:03.485Z,6692.00
2022-10-18T10:00:04.426Z,6692.00
2022-10-18T10:01:03.620Z,7556.00
2022-10-18T10:02:03.563Z,7772.00
2022-10-18T10:03:03.557Z,9052.00
2022-10-18T10:04:03.510Z,8356.00
2022-10-18T10:05:03.481Z,8724.00
2022-10-18T10:06:03.455Z,8148.00
2022-10-18T10:07:03.360Z,7332.00
2022-10-18T10:08:03.479Z,7580.00
2022-10-18T10:09:03.372Z,7076.00
2022-10-18T10:10:03.438Z,6800.00
2022-10-18T10:11:03.289Z,7368.00
2022-10-18T10:12:03.521Z,6964.00
2022-10-18T10:13:03.520Z,6928.00
2022-10-18T10:14:03.859Z,6852.00
2022-10-18T10:15:03.293Z,6436.00
2022-10-18T10:16:03.260Z,7008.00
2022-10-18T10:17:03.223Z,7508.00
2022-10-18T10:18:03.481Z,7912.00
2022-10-18T10:19:03.222Z,8680.00
2022-10-18T10:20:03.322Z,9356.00
2022-10-18T10:21:03.153Z,9920.00
2022-10-18T10:22:03.204Z,10480.00
2022-10-18T10:23:03.132Z,11012.00
2022-10-18T10:24:03.206Z,11412.00
2022-10-18T10:25:03.103Z,10752.00
2022-10-18T10:26:03.351Z,10508.00
2022-10-18T10:27:03.247Z,10080.00
2022-10-18T10:28:03.075Z,10172.00
2022-10-18T10:29:03.836Z,10388.00
2022-10-18T10:30:07.076Z,9236.00
2022-10-18T10:31:03.179Z,9220.00
2022-10-18T10:32:03.159Z,8960.00
2022-10-18T10:33:03.872Z,8564.00
2022-10-18T10:34:03.102Z,8328.00
2022-10-18T10:35:02.948Z,7744.00
2022-10-18T10:36:02.998Z,7520.00
2022-10-18T10:37:02.967Z,7332.00
2022-10-18T10:38:02.996Z,7152.00
2022-10-18T10:39:03.061Z,6664.00
2022-10-18T10:40:19.786Z,6164.00
2022-10-18T10:41:04.070Z,6068.00
2022-10-18T10:42:04.952Z,5964.00
2022-10-18T10:43:18.424Z,5092.00
2022-10-18T10:44:03.901Z,5076.00
2022-10-18T10:45:02.842Z,5288.00
2022-10-18T10:46:02.935Z,5928.00
2022-10-18T10:47:02.822Z,5632.00
2022-10-18T10:48:02.843Z,5908.00
2022-10-18T10:50:03.840Z,5944.00
2022-10-18T10:51:02.815Z,5504.00
2022-10-18T10:52:09.245Z,5400.00
2022-10-18T10:53:03.741Z,5672.00
2022-10-18T10:54:03.022Z,5680.00
2022-10-18T10:55:30.394Z,5808.00
2022-10-18T10:56:03.974Z,5784.00
2022-10-18T10:57:02.761Z,5836.00
2022-10-18T10:58:02.675Z,5872.00
2022-10-18T10:59:02.698Z,5972.00
2022-10-18T11:00:02.763Z,6372.00
2022-10-18T11:01:02.647Z,6152.00
2022-10-18T11:02:02.693Z,6196.00
2022-10-18T11:03:05.973Z,6648.00
2022-10-18T11:04:03.686Z,6508.00
2022-10-18T11:05:02.677Z,7088.00
2022-10-18T11:06:02.854Z,7372.00
2022-10-18T11:07:02.518Z,7180.00
2022-10-18T11:08:02.582Z,6168.00
2022-10-18T11:09:02.539Z,6024.00
2022-10-18T11:10:02.478Z,6260.00
2022-10-18T11:11:02.462Z,6556.00
2022-10-18T11:12:02.500Z,7252.00
2022-10-18T11:13:02.590Z,8096.00
2022-10-18T11:14:21.094Z,9124.00
2022-10-18T11:15:03.390Z,8260.00
2022-10-18T11:16:04.051Z,7928.00
2022-10-18T11:17:06.896Z,8264.00
2022-10-18T11:18:04.204Z,10324.00
2022-10-18T11:19:03.003Z,10180.00
2022-10-18T11:20:02.894Z,9064.00
2022-10-18T11:21:02.649Z,9620.00
2022-10-18T11:22:02.850Z,9276.00
2022-10-18T11:23:02.382Z,6892.00
2022-10-18T11:24:02.293Z,7780.00
2022-10-18T11:25:02.286Z,8528.00
2022-10-18T11:26:02.303Z,8560.00
2022-10-18T11:27:03.249Z,8632.00
2022-10-18T11:28:02.505Z,8336.00
2022-10-18T11:29:02.275Z,7996.00
2022-10-18T11:30:02.255Z,8368.00
2022-10-18T11:31:02.943Z,8312.00
2022-10-18T11:32:02.412Z,8196.00
2022-10-18T11:33:02.168Z,8444.00
2022-10-18T11:34:10.310Z,8056.00
2022-10-18T11:35:03.206Z,7896.00
2022-10-18T11:36:03.944Z,8288.00
2022-10-18T11:37:27.695Z,12104.00
2022-10-18T11:38:03.338Z,21568.00
2022-10-18T11:39:02.166Z,30976.00
2022-10-18T11:40:02.104Z,38752.00
2022-10-18T11:41:02.065Z,28992.00
2022-10-18T11:42:02.068Z,40256.00
2022-10-18T11:43:02.038Z,39552.00
2022-10-18T11:44:03.558Z,40704.00
2022-10-18T11:45:02.117Z,41600.00
2022-10-18T11:46:02.126Z,44512.00
2022-10-18T11:47:02.258Z,45600.00
2022-10-18T11:48:02.053Z,45440.00
2022-10-18T11:49:01.921Z,39904.00
2022-10-18T11:50:02.006Z,44288.00
2022-10-18T11:51:01.952Z,46016.00
2022-10-18T11:52:09.487Z,44672.00
2022-10-18T11:53:02.921Z,44608.00
2022-10-18T11:54:02.311Z,46720.00
2022-10-18T11:55:01.872Z,48896.00
2022-10-18T11:56:01.899Z,51616.00
2022-10-18T11:57:01.837Z,51808.00
2022-10-18T11:58:01.895Z,49056.00
2022-10-18T11:59:01.813Z,48416.00
2022-10-18T12:00:01.782Z,51552.00
2022-10-18T12:01:01.805Z,56320.00
2022-10-18T12:02:01.847Z,56288.00
2022-10-18T12:03:01.876Z,53120.00
2022-10-18T12:04:01.885Z,49632.00
2022-10-18T12:06:02.777Z,43552.00
2022-10-18T12:07:01.770Z,10596.00
2022-10-18T12:08:01.826Z,10428.00
2022-10-18T12:09:02.539Z,52032.00
2022-10-18T12:10:01.763Z,10904.00
2022-10-18T12:11:06.131Z,48000.00
2022-10-18T12:12:01.889Z,30528.00
2022-10-18T12:13:01.620Z,8284.00
2022-10-18T12:14:01.652Z,24608.00
2022-10-18T12:15:01.625Z,51328.00
2022-10-18T12:16:01.584Z,12484.00
2022-10-18T12:17:27.999Z,11368.00
2022-10-18T12:18:02.591Z,52672.00
2022-10-18T12:19:01.557Z,14152.00
2022-10-18T12:20:01.526Z,13032.00
2022-10-18T12:21:01.579Z,51200.00
2022-10-18T12:22:01.484Z,48736.00
2022-10-18T12:23:01.635Z,48864.00
2022-10-18T12:24:01.461Z,52064.00
2022-10-18T12:25:01.448Z,49600.00
2022-10-18T12:26:01.470Z,48704.00
2022-10-18T12:27:01.555Z,48896.00
2022-10-18T12:29:01.428Z,51936.00
2022-10-18T12:30:01.446Z,50496.00
2022-10-18T12:31:01.365Z,48320.00
2022-10-18T12:32:01.369Z,48608.00
2022-10-18T12:33:10.010Z,47328.00
2022-10-18T12:34:02.468Z,46368.00
2022-10-18T12:35:01.365Z,46912.00
2022-10-18T12:36:01.309Z,48768.00
2022-10-18T12:37:01.318Z,48960.00
2022-10-18T12:38:01.339Z,50272.00
2022-10-18T12:39:01.343Z,49952.00
2022-10-18T12:40:11.510Z,48928.00
2022-10-18T12:41:02.235Z,49568.00
2022-10-18T12:42:01.267Z,51104.00
2022-10-18T12:43:01.367Z,51616.00
2022-10-18T12:44:01.174Z,50080.00
2022-10-18T12:45:01.385Z,47424.00
2022-10-18T12:46:01.243Z,44160.00
2022-10-18T12:47:01.153Z,43328.00
2022-10-18T12:48:01.152Z,44928.00
2022-10-18T12:49:01.187Z,44480.00
2022-10-18T12:50:01.090Z,42912.00
2022-10-18T12:51:01.097Z,42784.00
2022-10-18T12:52:01.102Z,41984.00
2022-10-18T12:53:01.057Z,41856.00
2022-10-18T12:54:01.065Z,40384.00
2022-10-18T12:55:01.301Z,40096.00
2022-10-18T12:56:01.960Z,41184.00
2022-10-18T12:57:01.047Z,40608.00
2022-10-18T12:58:00.975Z,40096.00
2022-10-18T12:59:01.089Z,39296.00
2022-10-18T13:00:01.079Z,38688.00
2022-10-18T13:01:00.955Z,38720.00
2022-10-18T13:02:01.202Z,38304.00
2022-10-18T13:03:00.932Z,38496.00
2022-10-18T13:04:00.923Z,40544.00
2022-10-18T13:05:01.071Z,40928.00
2022-10-18T13:06:04.233Z,39040.00
2022-10-18T13:07:01.939Z,37024.00
2022-10-18T13:08:00.904Z,37760.00
2022-10-18T13:09:01.327Z,40224.00
2022-10-18T13:10:01.248Z,41760.00
2022-10-18T13:11:00.826Z,41408.00
2022-10-18T13:12:02.076Z,40768.00
2022-10-18T13:13:05.647Z,39840.00
2022-10-18T13:14:01.929Z,39936.00
2022-10-18T13:15:20.553Z,40320.00
2022-10-18T13:16:01.757Z,39520.00
2022-10-18T13:17:00.784Z,40320.00
2022-10-18T13:18:00.744Z,39904.00
2022-10-18T13:19:00.669Z,39392.00
2022-10-18T13:20:24.110Z,39712.00
2022-10-18T13:21:01.676Z,39840.00
2022-10-18T13:22:00.632Z,38208.00
2022-10-18T13:23:00.725Z,35680.00
2022-10-18T13:24:00.664Z,33536.00
2022-10-18T13:25:00.695Z,31296.00
2022-10-18T13:26:00.643Z,8784.00
2022-10-18T13:27:24.068Z,13584.00
2022-10-18T13:28:01.629Z,8184.00
2022-10-18T13:29:00.608Z,10340.00
2022-10-18T13:30:00.607Z,16928.00